sensor_id;sensor_type;location;lat;lon;timestamp;P1;durP1;ratioP1;P2;durP2;ratioP2
51382;SDS011;37475;43.358;1.248;2023-04-30T00:00:55;4.38;;;2.45;;
51382;SDS011;37475;43.358;1.248;2023-04-30T00:03:21;6.05;;;2.78;;
51382;SDS011;37475;43.358;1.248;2023-04-30T00:05:51;5.63;;;2.53;;
51382;SDS011;37475;43.358;1.248;2023-04-30T00:08:17;5.35;;;3.00;;
51382;SDS011;37475;43.358;1.248;2023-04-30T00:10:43;5.10;;;3.15;;
51382;SDS011;37475;43.358;1.248;2023-04-30T00:13:09;9.05;;;3.53;;
51382;SDS011;37475;43.358;1.248;2023-04-30T00:15:37;6.47;;;3.45;;
51382;SDS011;37475;43.358;1.248;2023-04-30T00:18:03;7.75;;;4.00;;
51382;SDS011;37475;43.358;1.248;2023-04-30T00:20:31;7.72;;;3.72;;
51382;SDS011;37475;43.358;1.248;2023-04-30T00:22:59;8.98;;;4.28;;
51382;SDS011;37475;43.358;1.248;2023-04-30T00:25:25;11.85;;;4.45;;
51382;SDS011;37475;43.358;1.248;2023-04-30T00:27:50;13.88;;;4.32;;
51382;SDS011;37475;43.358;1.248;2023-04-30T00:30:16;9.65;;;4.45;;
51382;SDS011;37475;43.358;1.248;2023-04-30T00:32:42;9.73;;;4.85;;
51382;SDS011;37475;43.358;1.248;2023-04-30T00:35:09;8.40;;;4.50;;
51382;SDS011;37475;43.358;1.248;2023-04-30T00:37:35;11.63;;;5.20;;
51382;SDS011;37475;43.358;1.248;2023-04-30T00:40:01;7.35;;;4.60;;
51382;SDS011;37475;43.358;1.248;2023-04-30T00:42:28;7.70;;;4.85;;
51382;SDS011;37475;43.358;1.248;2023-04-30T00:44:54;9.55;;;4.93;;
51382;SDS011;37475;43.358;1.248;2023-04-30T00:47:19;6.63;;;3.75;;
51382;SDS011;37475;43.358;1.248;2023-04-30T00:49:45;9.23;;;4.57;;
51382;SDS011;37475;43.358;1.248;2023-04-30T00:52:12;11.88;;;4.82;;
51382;SDS011;37475;43.358;1.248;2023-04-30T00:54:38;6.78;;;4.53;;
51382;SDS011;37475;43.358;1.248;2023-04-30T00:57:04;8.38;;;4.32;;
51382;SDS011;37475;43.358;1.248;2023-04-30T00:59:33;6.50;;;3.92;;
51382;SDS011;37475;43.358;1.248;2023-04-30T01:01:59;6.45;;;3.42;;
51382;SDS011;37475;43.358;1.248;2023-04-30T01:04:26;9.00;;;4.47;;
51382;SDS011;37475;43.358;1.248;2023-04-30T01:06:53;8.70;;;3.97;;
51382;SDS011;37475;43.358;1.248;2023-04-30T01:09:19;7.60;;;4.30;;
51382;SDS011;37475;43.358;1.248;2023-04-30T01:14:50;7.35;;;4.20;;
51382;SDS011;37475;43.358;1.248;2023-04-30T01:17:35;5.70;;;3.55;;
51382;SDS011;37475;43.358;1.248;2023-04-30T01:20:08;5.97;;;3.63;;
51382;SDS011;37475;43.358;1.248;2023-04-30T01:22:37;9.82;;;4.18;;
51382;SDS011;37475;43.358;1.248;2023-04-30T01:25:34;9.93;;;4.03;;
51382;SDS011;37475;43.358;1.248;2023-04-30T01:28:15;6.93;;;3.53;;
51382;SDS011;37475;43.358;1.248;2023-04-30T01:30:45;5.88;;;3.72;;
51382;SDS011;37475;43.358;1.248;2023-04-30T01:33:11;5.68;;;3.47;;
51382;SDS011;37475;43.358;1.248;2023-04-30T01:41:09;4.40;;;2.60;;
51382;SDS011;37475;43.358;1.248;2023-04-30T01:51:56;6.13;;;3.60;;
51382;SDS011;37475;43.358;1.248;2023-04-30T01:54:59;6.88;;;3.15;;
51382;SDS011;37475;43.358;1.248;2023-04-30T01:57:34;8.52;;;4.07;;
51382;SDS011;37475;43.358;1.248;2023-04-30T02:00:06;7.88;;;4.57;;
51382;SDS011;37475;43.358;1.248;2023-04-30T02:02:35;7.90;;;4.15;;
51382;SDS011;37475;43.358;1.248;2023-04-30T02:05:01;7.15;;;4.35;;
51382;SDS011;37475;43.358;1.248;2023-04-30T02:07:38;8.27;;;4.45;;
51382;SDS011;37475;43.358;1.248;2023-04-30T02:10:08;6.55;;;3.80;;
51382;SDS011;37475;43.358;1.248;2023-04-30T02:12:36;7.47;;;3.95;;
51382;SDS011;37475;43.358;1.248;2023-04-30T02:15:02;9.35;;;5.25;;
51382;SDS011;37475;43.358;1.248;2023-04-30T02:17:29;7.50;;;3.72;;
51382;SDS011;37475;43.358;1.248;2023-04-30T02:19:56;9.07;;;4.38;;
51382;SDS011;37475;43.358;1.248;2023-04-30T02:22:22;8.27;;;4.20;;
51382;SDS011;37475;43.358;1.248;2023-04-30T02:24:48;8.05;;;4.45;;
51382;SDS011;37475;43.358;1.248;2023-04-30T02:27:14;7.90;;;3.80;;
51382;SDS011;37475;43.358;1.248;2023-04-30T02:29:40;5.68;;;3.97;;
51382;SDS011;37475;43.358;1.248;2023-04-30T02:32:06;7.22;;;3.72;;
51382;SDS011;37475;43.358;1.248;2023-04-30T02:34:32;6.65;;;3.63;;
51382;SDS011;37475;43.358;1.248;2023-04-30T02:36:58;6.25;;;3.72;;
51382;SDS011;37475;43.358;1.248;2023-04-30T02:39:24;6.15;;;3.28;;
51382;SDS011;37475;43.358;1.248;2023-04-30T02:41:51;5.80;;;3.25;;
51382;SDS011;37475;43.358;1.248;2023-04-30T02:44:16;6.00;;;3.85;;
51382;SDS011;37475;43.358;1.248;2023-04-30T02:46:42;8.63;;;3.97;;
51382;SDS011;37475;43.358;1.248;2023-04-30T02:49:08;5.68;;;2.85;;
51382;SDS011;37475;43.358;1.248;2023-04-30T02:51:34;6.70;;;3.67;;
51382;SDS011;37475;43.358;1.248;2023-04-30T02:54:00;7.53;;;4.10;;
51382;SDS011;37475;43.358;1.248;2023-04-30T02:56:25;4.85;;;2.85;;
51382;SDS011;37475;43.358;1.248;2023-04-30T02:58:52;7.50;;;3.45;;
51382;SDS011;37475;43.358;1.248;2023-04-30T03:01:18;3.83;;;1.88;;
51382;SDS011;37475;43.358;1.248;2023-04-30T03:03:44;6.40;;;3.90;;
51382;SDS011;37475;43.358;1.248;2023-04-30T03:06:09;7.95;;;4.03;;
51382;SDS011;37475;43.358;1.248;2023-04-30T03:08:35;7.10;;;3.88;;
51382;SDS011;37475;43.358;1.248;2023-04-30T03:11:01;8.65;;;4.38;;
51382;SDS011;37475;43.358;1.248;2023-04-30T03:13:28;6.85;;;4.13;;
51382;SDS011;37475;43.358;1.248;2023-04-30T03:16:00;5.95;;;3.17;;
51382;SDS011;37475;43.358;1.248;2023-04-30T03:18:31;6.03;;;3.35;;
51382;SDS011;37475;43.358;1.248;2023-04-30T03:20:57;7.38;;;4.32;;
51382;SDS011;37475;43.358;1.248;2023-04-30T03:23:23;7.68;;;4.72;;
51382;SDS011;37475;43.358;1.248;2023-04-30T03:25:51;12.05;;;4.35;;
51382;SDS011;37475;43.358;1.248;2023-04-30T03:28:17;8.30;;;3.95;;
51382;SDS011;37475;43.358;1.248;2023-04-30T03:30:43;9.95;;;4.85;;
51382;SDS011;37475;43.358;1.248;2023-04-30T03:33:09;7.25;;;4.20;;
51382;SDS011;37475;43.358;1.248;2023-04-30T03:35:35;7.43;;;4.05;;
51382;SDS011;37475;43.358;1.248;2023-04-30T03:38:01;9.18;;;4.95;;
51382;SDS011;37475;43.358;1.248;2023-04-30T03:40:27;6.38;;;3.15;;
51382;SDS011;37475;43.358;1.248;2023-04-30T03:42:53;6.70;;;3.90;;
51382;SDS011;37475;43.358;1.248;2023-04-30T03:45:19;6.05;;;3.40;;
51382;SDS011;37475;43.358;1.248;2023-04-30T03:47:45;6.78;;;3.90;;
51382;SDS011;37475;43.358;1.248;2023-04-30T03:50:11;6.60;;;3.08;;
51382;SDS011;37475;43.358;1.248;2023-04-30T03:52:38;6.57;;;3.40;;
51382;SDS011;37475;43.358;1.248;2023-04-30T03:55:04;6.93;;;3.55;;
51382;SDS011;37475;43.358;1.248;2023-04-30T03:57:31;6.07;;;2.90;;
51382;SDS011;37475;43.358;1.248;2023-04-30T03:59:57;6.82;;;3.65;;
51382;SDS011;37475;43.358;1.248;2023-04-30T04:02:23;7.38;;;2.85;;
51382;SDS011;37475;43.358;1.248;2023-04-30T04:04:49;4.30;;;2.33;;
51382;SDS011;37475;43.358;1.248;2023-04-30T04:07:15;4.55;;;2.67;;
51382;SDS011;37475;43.358;1.248;2023-04-30T04:09:42;6.18;;;2.55;;
51382;SDS011;37475;43.358;1.248;2023-04-30T04:12:07;4.88;;;2.20;;
51382;SDS011;37475;43.358;1.248;2023-04-30T04:14:33;5.88;;;3.63;;
51382;SDS011;37475;43.358;1.248;2023-04-30T04:16:59;7.70;;;3.60;;
51382;SDS011;37475;43.358;1.248;2023-04-30T04:19:26;7.05;;;4.07;;
51382;SDS011;37475;43.358;1.248;2023-04-30T04:21:52;8.65;;;4.18;;
51382;SDS011;37475;43.358;1.248;2023-04-30T04:24:18;6.97;;;3.85;;
51382;SDS011;37475;43.358;1.248;2023-04-30T04:26:44;8.43;;;4.45;;
51382;SDS011;37475;43.358;1.248;2023-04-30T04:29:10;6.78;;;3.47;;
51382;SDS011;37475;43.358;1.248;2023-04-30T04:31:36;8.30;;;3.63;;
51382;SDS011;37475;43.358;1.248;2023-04-30T04:34:03;6.15;;;3.25;;
51382;SDS011;37475;43.358;1.248;2023-04-30T04:36:29;7.20;;;4.00;;
51382;SDS011;37475;43.358;1.248;2023-04-30T04:38:57;6.63;;;2.95;;
51382;SDS011;37475;43.358;1.248;2023-04-30T04:41:32;5.35;;;3.20;;
51382;SDS011;37475;43.358;1.248;2023-04-30T04:44:01;8.57;;;4.00;;
51382;SDS011;37475;43.358;1.248;2023-04-30T04:46:31;6.88;;;3.33;;
51382;SDS011;37475;43.358;1.248;2023-04-30T04:48:59;7.70;;;3.70;;
51382;SDS011;37475;43.358;1.248;2023-04-30T04:51:25;7.15;;;4.28;;
51382;SDS011;37475;43.358;1.248;2023-04-30T04:53:51;6.20;;;4.10;;
51382;SDS011;37475;43.358;1.248;2023-04-30T04:56:16;7.00;;;3.28;;
51382;SDS011;37475;43.358;1.248;2023-04-30T04:58:42;5.88;;;3.13;;
51382;SDS011;37475;43.358;1.248;2023-04-30T05:01:09;4.50;;;2.53;;
51382;SDS011;37475;43.358;1.248;2023-04-30T05:03:35;5.38;;;3.00;;
51382;SDS011;37475;43.358;1.248;2023-04-30T05:06:01;5.95;;;3.20;;
51382;SDS011;37475;43.358;1.248;2023-04-30T05:08:28;7.45;;;2.85;;
51382;SDS011;37475;43.358;1.248;2023-04-30T05:10:54;6.85;;;3.17;;
51382;SDS011;37475;43.358;1.248;2023-04-30T05:13:19;7.05;;;2.47;;
51382;SDS011;37475;43.358;1.248;2023-04-30T05:15:46;3.75;;;2.20;;
51382;SDS011;37475;43.358;1.248;2023-04-30T05:18:17;7.43;;;2.78;;
51382;SDS011;37475;43.358;1.248;2023-04-30T05:20:43;7.50;;;3.40;;
51382;SDS011;37475;43.358;1.248;2023-04-30T05:23:09;4.80;;;2.50;;
51382;SDS011;37475;43.358;1.248;2023-04-30T05:25:36;5.13;;;2.58;;
51382;SDS011;37475;43.358;1.248;2023-04-30T05:28:02;5.93;;;2.53;;
51382;SDS011;37475;43.358;1.248;2023-04-30T05:30:28;4.97;;;2.75;;
51382;SDS011;37475;43.358;1.248;2023-04-30T05:32:54;6.15;;;2.95;;
51382;SDS011;37475;43.358;1.248;2023-04-30T05:35:21;3.70;;;1.90;;
51382;SDS011;37475;43.358;1.248;2023-04-30T05:37:47;5.25;;;2.33;;
51382;SDS011;37475;43.358;1.248;2023-04-30T05:40:14;5.00;;;1.98;;
51382;SDS011;37475;43.358;1.248;2023-04-30T05:42:41;5.03;;;2.85;;
51382;SDS011;37475;43.358;1.248;2023-04-30T05:45:09;6.22;;;3.35;;
51382;SDS011;37475;43.358;1.248;2023-04-30T05:47:38;5.75;;;2.70;;
51382;SDS011;37475;43.358;1.248;2023-04-30T05:50:05;4.78;;;2.72;;
51382;SDS011;37475;43.358;1.248;2023-04-30T05:52:32;5.63;;;2.72;;
51382;SDS011;37475;43.358;1.248;2023-04-30T05:54:57;4.22;;;2.20;;
51382;SDS011;37475;43.358;1.248;2023-04-30T05:57:23;4.70;;;2.75;;
51382;SDS011;37475;43.358;1.248;2023-04-30T05:59:49;4.75;;;2.70;;
51382;SDS011;37475;43.358;1.248;2023-04-30T06:02:15;5.50;;;2.67;;
51382;SDS011;37475;43.358;1.248;2023-04-30T06:04:40;5.78;;;2.47;;
51382;SDS011;37475;43.358;1.248;2023-04-30T06:07:07;8.48;;;3.10;;
51382;SDS011;37475;43.358;1.248;2023-04-30T06:09:33;6.15;;;3.00;;
51382;SDS011;37475;43.358;1.248;2023-04-30T06:11:58;7.05;;;2.90;;
51382;SDS011;37475;43.358;1.248;2023-04-30T06:14:24;5.88;;;3.05;;
51382;SDS011;37475;43.358;1.248;2023-04-30T06:16:50;5.50;;;2.90;;
51382;SDS011;37475;43.358;1.248;2023-04-30T06:19:16;5.57;;;2.97;;
51382;SDS011;37475;43.358;1.248;2023-04-30T06:21:42;4.72;;;3.00;;
51382;SDS011;37475;43.358;1.248;2023-04-30T06:24:08;4.72;;;2.75;;
51382;SDS011;37475;43.358;1.248;2023-04-30T06:26:34;6.53;;;3.25;;
51382;SDS011;37475;43.358;1.248;2023-04-30T06:29:00;4.32;;;2.85;;
51382;SDS011;37475;43.358;1.248;2023-04-30T06:31:26;4.57;;;2.70;;
51382;SDS011;37475;43.358;1.248;2023-04-30T06:33:52;5.93;;;2.92;;
51382;SDS011;37475;43.358;1.248;2023-04-30T06:36:18;5.63;;;2.45;;
51382;SDS011;37475;43.358;1.248;2023-04-30T06:38:44;5.15;;;2.78;;
51382;SDS011;37475;43.358;1.248;2023-04-30T06:41:11;4.95;;;2.63;;
51382;SDS011;37475;43.358;1.248;2023-04-30T06:43:37;4.65;;;3.10;;
51382;SDS011;37475;43.358;1.248;2023-04-30T06:46:03;5.32;;;3.20;;
51382;SDS011;37475;43.358;1.248;2023-04-30T06:48:30;6.78;;;4.05;;
51382;SDS011;37475;43.358;1.248;2023-04-30T06:50:57;5.15;;;3.65;;
51382;SDS011;37475;43.358;1.248;2023-04-30T06:53:23;7.63;;;3.75;;
51382;SDS011;37475;43.358;1.248;2023-04-30T06:55:49;7.50;;;4.35;;
51382;SDS011;37475;43.358;1.248;2023-04-30T06:58:15;6.40;;;3.53;;
51382;SDS011;37475;43.358;1.248;2023-04-30T07:00:42;5.43;;;3.20;;
51382;SDS011;37475;43.358;1.248;2023-04-30T07:03:08;9.70;;;3.30;;
51382;SDS011;37475;43.358;1.248;2023-04-30T07:05:34;6.57;;;3.58;;
51382;SDS011;37475;43.358;1.248;2023-04-30T07:08:00;6.15;;;3.60;;
51382;SDS011;37475;43.358;1.248;2023-04-30T07:10:27;7.88;;;3.95;;
51382;SDS011;37475;43.358;1.248;2023-04-30T07:12:55;5.70;;;3.30;;
51382;SDS011;37475;43.358;1.248;2023-04-30T07:15:21;6.78;;;3.78;;
51382;SDS011;37475;43.358;1.248;2023-04-30T07:17:47;8.35;;;4.25;;
51382;SDS011;37475;43.358;1.248;2023-04-30T07:20:13;7.00;;;3.47;;
51382;SDS011;37475;43.358;1.248;2023-04-30T07:22:39;9.07;;;4.72;;
51382;SDS011;37475;43.358;1.248;2023-04-30T07:25:08;7.32;;;4.03;;
51382;SDS011;37475;43.358;1.248;2023-04-30T07:27:35;10.18;;;4.10;;
51382;SDS011;37475;43.358;1.248;2023-04-30T07:30:01;8.65;;;4.40;;
51382;SDS011;37475;43.358;1.248;2023-04-30T07:32:28;8.02;;;4.35;;
51382;SDS011;37475;43.358;1.248;2023-04-30T07:34:54;8.68;;;4.95;;
51382;SDS011;37475;43.358;1.248;2023-04-30T07:37:20;8.48;;;4.38;;
51382;SDS011;37475;43.358;1.248;2023-04-30T07:39:46;8.63;;;4.85;;
51382;SDS011;37475;43.358;1.248;2023-04-30T07:42:12;11.93;;;6.47;;
51382;SDS011;37475;43.358;1.248;2023-04-30T07:44:37;9.95;;;5.57;;
51382;SDS011;37475;43.358;1.248;2023-04-30T07:47:03;10.88;;;4.93;;
51382;SDS011;37475;43.358;1.248;2023-04-30T07:49:29;9.55;;;5.13;;
51382;SDS011;37475;43.358;1.248;2023-04-30T07:51:55;10.75;;;5.25;;
51382;SDS011;37475;43.358;1.248;2023-04-30T07:54:21;9.13;;;4.72;;
51382;SDS011;37475;43.358;1.248;2023-04-30T07:56:47;15.55;;;6.20;;
51382;SDS011;37475;43.358;1.248;2023-04-30T07:59:13;8.23;;;4.70;;
51382;SDS011;37475;43.358;1.248;2023-04-30T08:01:39;9.15;;;4.63;;
51382;SDS011;37475;43.358;1.248;2023-04-30T08:04:05;11.02;;;5.00;;
51382;SDS011;37475;43.358;1.248;2023-04-30T08:06:31;10.57;;;6.85;;
51382;SDS011;37475;43.358;1.248;2023-04-30T08:08:57;10.70;;;6.25;;
51382;SDS011;37475;43.358;1.248;2023-04-30T08:11:23;8.23;;;4.82;;
51382;SDS011;37475;43.358;1.248;2023-04-30T08:13:48;8.85;;;4.90;;
51382;SDS011;37475;43.358;1.248;2023-04-30T08:16:14;11.15;;;6.72;;
51382;SDS011;37475;43.358;1.248;2023-04-30T08:18:40;7.72;;;4.55;;
51382;SDS011;37475;43.358;1.248;2023-04-30T08:21:11;9.55;;;5.75;;
51382;SDS011;37475;43.358;1.248;2023-04-30T08:23:37;12.63;;;6.93;;
51382;SDS011;37475;43.358;1.248;2023-04-30T08:26:03;15.07;;;8.68;;
51382;SDS011;37475;43.358;1.248;2023-04-30T08:28:29;8.50;;;4.70;;
51382;SDS011;37475;43.358;1.248;2023-04-30T08:30:55;6.45;;;3.50;;
51382;SDS011;37475;43.358;1.248;2023-04-30T08:33:21;9.88;;;6.45;;
51382;SDS011;37475;43.358;1.248;2023-04-30T08:35:47;10.40;;;6.65;;
51382;SDS011;37475;43.358;1.248;2023-04-30T08:38:13;14.00;;;8.32;;
51382;SDS011;37475;43.358;1.248;2023-04-30T08:40:39;11.02;;;6.30;;
51382;SDS011;37475;43.358;1.248;2023-04-30T08:43:06;10.68;;;6.72;;
51382;SDS011;37475;43.358;1.248;2023-04-30T08:45:34;17.33;;;9.40;;
51382;SDS011;37475;43.358;1.248;2023-04-30T08:48:01;13.27;;;7.05;;
51382;SDS011;37475;43.358;1.248;2023-04-30T08:50:29;11.30;;;6.63;;
51382;SDS011;37475;43.358;1.248;2023-04-30T08:52:58;8.13;;;5.10;;
51382;SDS011;37475;43.358;1.248;2023-04-30T08:55:26;13.15;;;6.90;;
51382;SDS011;37475;43.358;1.248;2023-04-30T08:57:52;9.90;;;5.57;;
51382;SDS011;37475;43.358;1.248;2023-04-30T09:00:18;13.35;;;7.43;;
51382;SDS011;37475;43.358;1.248;2023-04-30T09:02:44;12.65;;;6.68;;
51382;SDS011;37475;43.358;1.248;2023-04-30T09:05:13;12.52;;;6.78;;
51382;SDS011;37475;43.358;1.248;2023-04-30T09:07:40;14.13;;;6.43;;
51382;SDS011;37475;43.358;1.248;2023-04-30T09:10:21;14.23;;;7.03;;
51382;SDS011;37475;43.358;1.248;2023-04-30T09:13:06;10.88;;;5.47;;
51382;SDS011;37475;43.358;1.248;2023-04-30T09:15:33;13.07;;;7.65;;
51382;SDS011;37475;43.358;1.248;2023-04-30T09:23:27;14.27;;;6.80;;
51382;SDS011;37475;43.358;1.248;2023-04-30T09:25:53;10.50;;;6.70;;
51382;SDS011;37475;43.358;1.248;2023-04-30T09:28:20;11.23;;;6.53;;
51382;SDS011;37475;43.358;1.248;2023-04-30T09:30:49;12.07;;;7.00;;
51382;SDS011;37475;43.358;1.248;2023-04-30T09:33:16;15.43;;;8.68;;
51382;SDS011;37475;43.358;1.248;2023-04-30T09:35:42;17.92;;;8.55;;
51382;SDS011;37475;43.358;1.248;2023-04-30T09:41:23;17.38;;;9.85;;
51382;SDS011;37475;43.358;1.248;2023-04-30T09:43:52;18.88;;;9.73;;
51382;SDS011;37475;43.358;1.248;2023-04-30T09:46:28;18.17;;;10.05;;
51382;SDS011;37475;43.358;1.248;2023-04-30T09:48:59;23.25;;;12.63;;
51382;SDS011;37475;43.358;1.248;2023-04-30T09:51:27;42.13;;;24.58;;
51382;SDS011;37475;43.358;1.248;2023-04-30T09:53:53;14.85;;;8.70;;
51382;SDS011;37475;43.358;1.248;2023-04-30T09:56:20;18.15;;;8.82;;
51382;SDS011;37475;43.358;1.248;2023-04-30T09:58:51;14.52;;;8.73;;
51382;SDS011;37475;43.358;1.248;2023-04-30T10:01:20;18.75;;;10.35;;
51382;SDS011;37475;43.358;1.248;2023-04-30T10:03:51;23.38;;;13.98;;
51382;SDS011;37475;43.358;1.248;2023-04-30T10:06:19;13.10;;;7.25;;
51382;SDS011;37475;43.358;1.248;2023-04-30T10:08:47;19.52;;;10.65;;
51382;SDS011;37475;43.358;1.248;2023-04-30T10:11:19;17.33;;;8.55;;
51382;SDS011;37475;43.358;1.248;2023-04-30T10:16:36;14.32;;;6.68;;
51382;SDS011;37475;43.358;1.248;2023-04-30T10:19:20;12.75;;;7.18;;
51382;SDS011;37475;43.358;1.248;2023-04-30T10:21:54;19.63;;;9.13;;
51382;SDS011;37475;43.358;1.248;2023-04-30T10:24:20;12.07;;;6.68;;
51382;SDS011;37475;43.358;1.248;2023-04-30T10:26:46;14.80;;;7.05;;
51382;SDS011;37475;43.358;1.248;2023-04-30T10:29:14;17.40;;;8.50;;
51382;SDS011;37475;43.358;1.248;2023-04-30T10:31:46;16.10;;;7.90;;
51382;SDS011;37475;43.358;1.248;2023-04-30T10:37:02;16.95;;;7.80;;
51382;SDS011;37475;43.358;1.248;2023-04-30T10:39:36;10.70;;;5.57;;
51382;SDS011;37475;43.358;1.248;2023-04-30T10:42:03;9.93;;;4.97;;
51382;SDS011;37475;43.358;1.248;2023-04-30T10:44:32;12.45;;;5.07;;
51382;SDS011;37475;43.358;1.248;2023-04-30T10:47:05;11.57;;;5.65;;
51382;SDS011;37475;43.358;1.248;2023-04-30T10:49:31;9.98;;;5.22;;
51382;SDS011;37475;43.358;1.248;2023-04-30T10:51:58;8.88;;;4.20;;
51382;SDS011;37475;43.358;1.248;2023-04-30T10:54:30;10.73;;;5.07;;
51382;SDS011;37475;43.358;1.248;2023-04-30T10:59:40;7.25;;;4.05;;
51382;SDS011;37475;43.358;1.248;2023-04-30T11:02:09;9.05;;;4.32;;
51382;SDS011;37475;43.358;1.248;2023-04-30T11:07:35;7.43;;;3.90;;
51382;SDS011;37475;43.358;1.248;2023-04-30T11:10:02;10.90;;;4.32;;
51382;SDS011;37475;43.358;1.248;2023-04-30T11:12:32;7.43;;;2.92;;
51382;SDS011;37475;43.358;1.248;2023-04-30T11:17:31;7.75;;;3.50;;
51382;SDS011;37475;43.358;1.248;2023-04-30T11:19:59;7.10;;;3.75;;
51382;SDS011;37475;43.358;1.248;2023-04-30T11:22:25;9.23;;;4.00;;
51382;SDS011;37475;43.358;1.248;2023-04-30T11:27:43;5.25;;;3.05;;
51382;SDS011;37475;43.358;1.248;2023-04-30T11:30:10;8.90;;;3.38;;
51382;SDS011;37475;43.358;1.248;2023-04-30T11:32:39;7.93;;;3.78;;
51382;SDS011;37475;43.358;1.248;2023-04-30T11:35:08;9.90;;;3.20;;
51382;SDS011;37475;43.358;1.248;2023-04-30T11:37:35;6.43;;;3.47;;
51382;SDS011;37475;43.358;1.248;2023-04-30T11:40:04;7.70;;;3.00;;
51382;SDS011;37475;43.358;1.248;2023-04-30T11:42:35;7.60;;;2.92;;
51382;SDS011;37475;43.358;1.248;2023-04-30T11:50:08;6.57;;;3.13;;
51382;SDS011;37475;43.358;1.248;2023-04-30T11:52:36;4.90;;;2.42;;
51382;SDS011;37475;43.358;1.248;2023-04-30T11:55:13;6.47;;;3.30;;
51382;SDS011;37475;43.358;1.248;2023-04-30T11:57:42;7.70;;;3.80;;
51382;SDS011;37475;43.358;1.248;2023-04-30T12:00:11;4.80;;;2.70;;
51382;SDS011;37475;43.358;1.248;2023-04-30T12:02:39;4.97;;;2.47;;
51382;SDS011;37475;43.358;1.248;2023-04-30T12:05:16;7.95;;;3.58;;
51382;SDS011;37475;43.358;1.248;2023-04-30T12:07:58;7.88;;;3.75;;
51382;SDS011;37475;43.358;1.248;2023-04-30T12:10:29;7.13;;;3.88;;
51382;SDS011;37475;43.358;1.248;2023-04-30T12:12:56;5.38;;;3.00;;
51382;SDS011;37475;43.358;1.248;2023-04-30T12:15:23;6.15;;;3.88;;
51382;SDS011;37475;43.358;1.248;2023-04-30T12:17:51;7.07;;;3.83;;
51382;SDS011;37475;43.358;1.248;2023-04-30T12:20:23;8.32;;;4.00;;
51382;SDS011;37475;43.358;1.248;2023-04-30T12:22:54;7.95;;;4.32;;
51382;SDS011;37475;43.358;1.248;2023-04-30T12:25:22;4.57;;;2.78;;
51382;SDS011;37475;43.358;1.248;2023-04-30T12:27:49;7.72;;;3.55;;
51382;SDS011;37475;43.358;1.248;2023-04-30T12:30:21;8.52;;;3.72;;
51382;SDS011;37475;43.358;1.248;2023-04-30T12:32:51;6.28;;;3.40;;
51382;SDS011;37475;43.358;1.248;2023-04-30T12:35:19;7.30;;;3.47;;
51382;SDS011;37475;43.358;1.248;2023-04-30T12:37:50;5.07;;;2.70;;
51382;SDS011;37475;43.358;1.248;2023-04-30T12:40:19;5.75;;;2.92;;
51382;SDS011;37475;43.358;1.248;2023-04-30T12:42:46;7.75;;;3.47;;
51382;SDS011;37475;43.358;1.248;2023-04-30T12:45:13;5.35;;;3.10;;
51382;SDS011;37475;43.358;1.248;2023-04-30T12:48:21;7.25;;;2.78;;
51382;SDS011;37475;43.358;1.248;2023-04-30T12:50:58;5.97;;;2.80;;
51382;SDS011;37475;43.358;1.248;2023-04-30T12:53:26;4.80;;;2.10;;
51382;SDS011;37475;43.358;1.248;2023-04-30T12:56:09;5.22;;;2.90;;
51382;SDS011;37475;43.358;1.248;2023-04-30T12:58:42;4.55;;;2.33;;
51382;SDS011;37475;43.358;1.248;2023-04-30T13:01:17;5.80;;;2.20;;
51382;SDS011;37475;43.358;1.248;2023-04-30T13:03:45;4.28;;;2.60;;
51382;SDS011;37475;43.358;1.248;2023-04-30T13:06:12;5.65;;;2.20;;
51382;SDS011;37475;43.358;1.248;2023-04-30T13:08:37;3.30;;;1.92;;
51382;SDS011;37475;43.358;1.248;2023-04-30T13:11:03;3.80;;;2.00;;
51382;SDS011;37475;43.358;1.248;2023-04-30T13:13:29;4.85;;;1.95;;
51382;SDS011;37475;43.358;1.248;2023-04-30T13:15:55;4.25;;;2.08;;
51382;SDS011;37475;43.358;1.248;2023-04-30T13:18:21;5.68;;;2.35;;
51382;SDS011;37475;43.358;1.248;2023-04-30T13:20:47;7.90;;;2.47;;
51382;SDS011;37475;43.358;1.248;2023-04-30T13:23:13;5.53;;;2.10;;
51382;SDS011;37475;43.358;1.248;2023-04-30T13:25:39;5.25;;;2.50;;
51382;SDS011;37475;43.358;1.248;2023-04-30T13:28:06;5.22;;;2.63;;
51382;SDS011;37475;43.358;1.248;2023-04-30T13:30:32;3.92;;;1.63;;
51382;SDS011;37475;43.358;1.248;2023-04-30T13:32:58;2.65;;;1.70;;
51382;SDS011;37475;43.358;1.248;2023-04-30T13:35:24;4.60;;;1.83;;
51382;SDS011;37475;43.358;1.248;2023-04-30T13:37:50;3.80;;;2.25;;
51382;SDS011;37475;43.358;1.248;2023-04-30T13:40:17;4.25;;;1.83;;
51382;SDS011;37475;43.358;1.248;2023-04-30T13:42:44;4.38;;;2.13;;
51382;SDS011;37475;43.358;1.248;2023-04-30T13:45:11;4.47;;;2.08;;
51382;SDS011;37475;43.358;1.248;2023-04-30T13:47:37;3.80;;;2.13;;
51382;SDS011;37475;43.358;1.248;2023-04-30T13:50:04;4.85;;;2.20;;
51382;SDS011;37475;43.358;1.248;2023-04-30T13:52:32;6.90;;;2.65;;
51382;SDS011;37475;43.358;1.248;2023-04-30T13:54:58;6.95;;;2.17;;
51382;SDS011;37475;43.358;1.248;2023-04-30T13:57:24;7.45;;;2.10;;
51382;SDS011;37475;43.358;1.248;2023-04-30T13:59:50;7.22;;;1.90;;
51382;SDS011;37475;43.358;1.248;2023-04-30T14:02:16;5.90;;;2.08;;
51382;SDS011;37475;43.358;1.248;2023-04-30T14:04:42;4.68;;;1.80;;
51382;SDS011;37475;43.358;1.248;2023-04-30T14:07:08;3.78;;;1.75;;
51382;SDS011;37475;43.358;1.248;2023-04-30T14:09:35;4.60;;;1.65;;
51382;SDS011;37475;43.358;1.248;2023-04-30T14:12:00;5.95;;;1.90;;
51382;SDS011;37475;43.358;1.248;2023-04-30T14:14:26;5.65;;;1.40;;
51382;SDS011;37475;43.358;1.248;2023-04-30T14:16:52;2.78;;;1.40;;
51382;SDS011;37475;43.358;1.248;2023-04-30T14:19:20;3.47;;;1.35;;
51382;SDS011;37475;43.358;1.248;2023-04-30T14:21:46;2.63;;;1.10;;
51382;SDS011;37475;43.358;1.248;2023-04-30T14:24:12;3.53;;;1.58;;
51382;SDS011;37475;43.358;1.248;2023-04-30T14:26:40;6.00;;;1.80;;
51382;SDS011;37475;43.358;1.248;2023-04-30T14:29:07;4.30;;;2.00;;
51382;SDS011;37475;43.358;1.248;2023-04-30T14:31:33;6.50;;;2.10;;
51382;SDS011;37475;43.358;1.248;2023-04-30T14:33:59;6.40;;;2.22;;
51382;SDS011;37475;43.358;1.248;2023-04-30T14:36:25;5.80;;;2.10;;
51382;SDS011;37475;43.358;1.248;2023-04-30T14:38:51;5.07;;;2.28;;
51382;SDS011;37475;43.358;1.248;2023-04-30T14:41:18;5.10;;;2.20;;
51382;SDS011;37475;43.358;1.248;2023-04-30T14:43:43;4.72;;;2.38;;
51382;SDS011;37475;43.358;1.248;2023-04-30T14:46:09;3.50;;;1.88;;
51382;SDS011;37475;43.358;1.248;2023-04-30T14:48:35;4.53;;;2.47;;
51382;SDS011;37475;43.358;1.248;2023-04-30T14:51:02;6.22;;;2.30;;
51382;SDS011;37475;43.358;1.248;2023-04-30T14:53:28;5.13;;;2.40;;
51382;SDS011;37475;43.358;1.248;2023-04-30T14:55:54;4.18;;;2.10;;
51382;SDS011;37475;43.358;1.248;2023-04-30T14:58:20;5.70;;;2.45;;
51382;SDS011;37475;43.358;1.248;2023-04-30T15:00:46;7.32;;;2.33;;
51382;SDS011;37475;43.358;1.248;2023-04-30T15:03:15;7.50;;;2.10;;
51382;SDS011;37475;43.358;1.248;2023-04-30T15:05:41;4.30;;;1.70;;
51382;SDS011;37475;43.358;1.248;2023-04-30T15:08:07;5.20;;;1.83;;
51382;SDS011;37475;43.358;1.248;2023-04-30T15:10:32;5.15;;;1.50;;
51382;SDS011;37475;43.358;1.248;2023-04-30T15:12:59;6.68;;;1.95;;
51382;SDS011;37475;43.358;1.248;2023-04-30T15:15:27;4.95;;;1.70;;
51382;SDS011;37475;43.358;1.248;2023-04-30T15:17:56;5.25;;;1.50;;
51382;SDS011;37475;43.358;1.248;2023-04-30T15:20:23;2.63;;;1.23;;
51382;SDS011;37475;43.358;1.248;2023-04-30T15:22:49;2.20;;;1.30;;
51382;SDS011;37475;43.358;1.248;2023-04-30T15:25:15;4.07;;;1.25;;
51382;SDS011;37475;43.358;1.248;2023-04-30T15:27:42;3.28;;;1.20;;
51382;SDS011;37475;43.358;1.248;2023-04-30T15:30:08;2.78;;;1.40;;
51382;SDS011;37475;43.358;1.248;2023-04-30T15:32:34;4.43;;;2.22;;
51382;SDS011;37475;43.358;1.248;2023-04-30T15:35:00;2.53;;;1.50;;